Time;durP1;ratioP1;P1;durP2;ratioP2;P2;SDS_P1;SDS_P2;PMS_P1;PMS_P2;Temp;Humidity;BMP_temperature;BMP_pressure;BME280_temperature;BME280_humidity;BME280_pressure;Samples;Min_cycle;Max_cycle;Signal;HPM_P1;HPM_P2
2022/03/17 00:02:07;;;;;;;38.80;7.37;;;;;;;10.09;91.14;96572.63;5077333;28;20200;-81
2022/03/17 00:04:35;;;;;;;36.83;8.43;;;;;;;9.92;90.75;96585.03;5084275;28;20213;-82
2022/03/17 00:07:02;;;;;;;36.30;6.90;;;;;;;9.82;90.61;96580.13;5076132;28;20197;-81
2022/03/17 00:09:29;;;;;;;40.77;6.97;;;;;;;9.86;91.20;96574.09;5078214;28;20201;-81
2022/03/17 00:11:57;;;;;;;32.70;6.60;;;;;;;9.60;92.20;96586.94;5085467;28;20307;-80
2022/03/17 00:14:25;;;;;;;29.77;6.77;;;;;;;9.67;93.26;96580.47;5078345;28;20220;-81
2022/03/17 00:16:52;;;;;;;27.87;5.83;;;;;;;9.61;93.15;96577.81;5085944;28;20239;-80
2022/03/17 00:19:20;;;;;;;43.07;7.50;;;;;;;9.57;92.72;96588.19;5077416;28;20201;-81
2022/03/17 00:21:47;;;;;;;30.13;6.80;;;;;;;9.56;93.53;96586.53;5079395;28;20212;-81
2022/03/17 00:24:14;;;;;;;23.37;6.57;;;;;;;9.49;93.37;96592.00;5096531;27;20531;-81
2022/03/17 00:26:41;;;;;;;41.13;7.70;;;;;;;9.62;93.76;96595.63;5069825;28;20296;-82
2022/03/17 00:29:09;;;;;;;31.73;8.23;;;;;;;9.49;93.36;96600.06;5081947;28;20231;-82
2022/03/17 00:31:38;;;;;;;42.80;7.53;;;;;;;9.28;95.49;96605.78;5075801;28;20228;-81
2022/03/17 00:34:06;;;;;;;30.77;7.80;;;;;;;9.11;97.06;96594.69;5081158;28;20278;-81
2022/03/17 00:36:35;;;;;;;27.43;7.30;;;;;;;9.02;98.60;96605.91;5083164;28;20201;-81
2022/03/17 00:39:05;;;;;;;36.57;7.20;;;;;;;8.91;99.58;96606.59;5099155;28;20209;-81
2022/03/17 00:41:32;;;;;;;29.47;7.33;;;;;;;9.00;99.78;96611.53;5072236;28;20228;-81
2022/03/17 00:43:59;;;;;;;36.13;7.53;;;;;;;9.08;98.92;96616.69;5084219;28;20204;-81
2022/03/17 00:46:26;;;;;;;34.57;7.53;;;;;;;9.18;97.90;96612.69;5084570;28;20287;-81
2022/03/17 00:48:53;;;;;;;31.83;7.10;;;;;;;9.22;97.69;96613.91;5086886;28;20212;-82
2022/03/17 00:51:20;;;;;;;24.67;6.23;;;;;;;9.19;97.25;96617.03;5086369;28;20200;-82
2022/03/17 00:53:50;;;;;;;26.07;6.23;;;;;;;9.37;96.99;96614.44;5077367;28;20220;-80
2022/03/17 00:56:17;;;;;;;33.23;8.13;;;;;;;9.30;96.61;96610.97;5084281;28;20285;-81
2022/03/17 00:58:45;;;;;;;30.40;6.77;;;;;;;9.32;96.21;96611.59;5118555;27;20200;-80
2022/03/17 01:01:13;;;;;;;28.23;6.50;;;;;;;9.39;96.08;96615.06;5081792;28;20207;-82
2022/03/17 01:03:40;;;;;;;30.73;6.77;;;;;;;9.37;95.72;96617.97;5082414;28;20213;-81
2022/03/17 01:06:08;;;;;;;34.80;7.83;;;;;;;9.24;96.77;96622.63;5080413;28;20196;-81
2022/03/17 01:08:35;;;;;;;25.20;6.40;;;;;;;9.28;96.98;96615.72;5077987;28;20247;-81
2022/03/17 01:11:04;;;;;;;32.30;6.90;;;;;;;9.11;96.60;96635.09;5083101;28;20193;-81
2022/03/17 01:13:32;;;;;;;30.77;6.77;;;;;;;8.71;100.00;96630.91;5086208;28;20225;-80
2022/03/17 01:15:59;;;;;;;40.17;7.77;;;;;;;8.49;100.00;96634.91;5079781;28;20329;-80
2022/03/17 01:18:26;;;;;;;27.43;6.70;;;;;;;8.58;100.00;96637.16;5084126;28;20227;-80
2022/03/17 01:20:53;;;;;;;40.83;7.17;;;;;;;8.72;100.00;96635.25;5082651;28;20269;-81
2022/03/17 01:23:20;;;;;;;38.37;7.07;;;;;;;8.78;100.00;96641.63;5080262;28;20238;-81
2022/03/17 01:25:47;;;;;;;37.90;7.57;;;;;;;8.74;100.00;96649.31;5079540;28;20200;-82
2022/03/17 01:28:16;;;;;;;39.83;6.80;;;;;;;8.59;100.00;96643.38;5095538;28;20259;-81
2022/03/17 01:30:43;;;;;;;33.73;6.50;;;;;;;8.57;100.00;96637.34;5081289;28;20205;-81
2022/03/17 01:33:10;;;;;;;31.30;6.03;;;;;;;8.68;100.00;96647.47;5084201;28;20317;-81
2022/03/17 01:35:37;;;;;;;30.10;6.87;;;;;;;8.66;100.00;96645.00;5080402;28;20208;-81
2022/03/17 01:38:04;;;;;;;32.53;6.07;;;;;;;8.87;100.00;96645.75;5078224;28;20213;-82
2022/03/17 01:40:31;;;;;;;32.93;6.57;;;;;;;9.01;100.00;96648.22;5083310;28;20219;-81
2022/03/17 01:42:58;;;;;;;36.70;7.10;;;;;;;9.05;99.54;96653.97;5084016;28;20231;-81
2022/03/17 01:45:27;;;;;;;30.97;7.00;;;;;;;9.15;99.36;96656.22;5076769;28;20208;-82
2022/03/17 01:47:54;;;;;;;32.07;7.00;;;;;;;9.04;98.69;96658.53;5076476;28;20292;-82
2022/03/17 01:50:22;;;;;;;48.33;7.47;;;;;;;8.57;100.00;96664.28;5073427;28;20200;-81
2022/03/17 01:52:50;;;;;;;33.60;6.70;;;;;;;8.31;100.00;96663.28;5084988;28;20282;-81
2022/03/17 01:55:18;;;;;;;31.00;7.40;;;;;;;8.38;100.00;96665.13;5080422;28;20471;-81
2022/03/17 01:57:45;;;;;;;42.33;8.23;;;;;;;8.55;100.00;96664.47;5081480;28;20256;-82
2022/03/17 02:00:17;;;;;;;39.87;7.67;;;;;;;8.42;100.00;96663.69;5079852;28;20204;-80
2022/03/17 02:02:47;;;;;;;35.37;7.50;;;;;;;8.50;100.00;96666.16;5075801;28;20208;-81
2022/03/17 02:05:14;;;;;;;39.50;7.63;;;;;;;8.54;100.00;96672.75;5069037;28;20312;-81
2022/03/17 02:07:44;;;;;;;27.63;7.10;;;;;;;8.59;100.00;96664.91;5077121;28;20211;-81
2022/03/17 02:10:11;;;;;;;23.93;7.13;;;;;;;8.73;100.00;96672.72;5079896;28;20205;-81
2022/03/17 02:15:22;;;;;;;30.53;6.53;;;;;;;8.24;100.00;96669.66;5074884;28;20229;-80
2022/03/17 02:17:50;;;;;;;35.73;7.20;;;;;;;7.95;100.00;96673.59;5080554;28;20294;-80
2022/03/17 02:20:18;;;;;;;36.60;7.17;;;;;;;7.81;100.00;96669.25;5080824;28;20201;-81
2022/03/17 02:22:46;;;;;;;34.30;7.20;;;;;;;7.69;100.00;96662.78;5082556;28;20229;-81
2022/03/17 02:25:36;;;;;;;37.30;6.93;;;;;;;7.56;100.00;96669.81;5077669;28;20209;-81
2022/03/17 02:28:05;;;;;;;43.90;7.87;;;;;;;7.70;100.00;96667.13;5077357;28;20200;-80
2022/03/17 02:30:35;;;;;;;40.90;7.60;;;;;;;7.64;100.00;96666.09;5071343;28;20205;-81
2022/03/17 02:33:04;;;;;;;27.50;7.07;;;;;;;7.75;100.00;96662.78;5079873;28;20213;-81
2022/03/17 02:35:32;;;;;;;43.60;9.40;;;;;;;7.83;100.00;96659.09;5078530;28;20255;-80
2022/03/17 02:38:02;;;;;;;42.00;7.57;;;;;;;7.93;100.00;96664.88;5078755;28;20228;-81
2022/03/17 02:40:31;;;;;;;49.57;8.03;;;;;;;7.74;100.00;96671.09;5073356;28;20215;-81
2022/03/17 02:42:58;;;;;;;48.70;8.20;;;;;;;7.55;100.00;96673.53;5081039;28;20193;-80
2022/03/17 02:45:26;;;;;;;42.03;8.60;;;;;;;7.47;100.00;96670.19;5079635;28;20631;-80
2022/03/17 02:47:53;;;;;;;38.43;8.90;;;;;;;7.51;100.00;96677.66;5080884;28;20284;-81
2022/03/17 02:50:20;;;;;;;47.20;7.77;;;;;;;7.61;100.00;96674.56;5075469;28;20293;-80
2022/03/17 02:52:47;;;;;;;39.43;7.73;;;;;;;7.79;100.00;96676.66;5078483;28;20225;-81
2022/03/17 02:55:15;;;;;;;38.43;7.80;;;;;;;7.91;100.00;96678.53;5082556;28;20287;-81
2022/03/17 02:57:45;;;;;;;48.13;8.63;;;;;;;8.02;100.00;96692.41;5077870;28;20246;-81
2022/03/17 03:00:14;;;;;;;38.40;8.70;;;;;;;8.10;100.00;96695.72;5077670;28;20296;-81
2022/03/17 03:02:42;;;;;;;28.03;7.00;;;;;;;7.97;100.00;96703.78;5078428;28;20205;-80
2022/03/17 03:05:10;;;;;;;41.53;8.57;;;;;;;7.85;100.00;96705.41;5074684;28;20235;-80
2022/03/17 03:07:38;;;;;;;34.87;7.57;;;;;;;7.94;100.00;96699.63;5081469;28;20303;-80
2022/03/17 03:10:06;;;;;;;34.67;8.53;;;;;;;8.01;100.00;96715.78;5074653;28;20292;-81
2022/03/17 03:12:33;;;;;;;34.80;8.07;;;;;;;7.94;100.00;96712.25;5073365;28;20204;-80
2022/03/17 03:15:03;;;;;;;36.60;7.90;;;;;;;8.06;100.00;96716.00;5077230;28;20213;-81
2022/03/17 03:17:30;;;;;;;39.30;8.97;;;;;;;7.82;100.00;96714.75;5067767;28;20204;-81
2022/03/17 03:19:58;;;;;;;33.07;7.50;;;;;;;7.77;100.00;96724.44;5078371;28;20208;-81
2022/03/17 03:22:29;;;;;;;38.07;8.87;;;;;;;7.63;100.00;96734.31;5074978;28;20229;-81
2022/03/17 03:24:57;;;;;;;29.20;7.23;;;;;;;7.76;100.00;96739.72;5042204;28;20240;-80
2022/03/17 03:27:27;;;;;;;40.70;7.67;;;;;;;7.85;100.00;96737.69;5042408;28;20210;-81
2022/03/17 03:29:55;;;;;;;40.60;8.93;;;;;;;8.04;100.00;96742.28;5035468;28;20226;-80
2022/03/17 03:32:24;;;;;;;44.90;9.53;;;;;;;7.90;100.00;96735.22;5039475;28;20199;-81
2022/03/17 03:34:51;;;;;;;33.07;8.73;;;;;;;7.97;100.00;96741.44;5035680;28;20222;-81
2022/03/17 03:37:23;;;;;;;35.87;7.00;;;;;;;8.17;100.00;96744.13;5034880;28;20209;-81
2022/03/17 03:39:52;;;;;;;32.37;8.93;;;;;;;7.99;100.00;96744.75;5049789;28;20206;-80
2022/03/17 03:42:19;;;;;;;32.63;8.23;;;;;;;8.07;100.00;96749.09;5071724;28;20211;-80
2022/03/17 03:44:46;;;;;;;26.63;6.97;;;;;;;8.19;100.00;96756.34;5038632;28;20301;-80
2022/03/17 03:47:14;;;;;;;28.57;7.10;;;;;;;8.16;100.00;96758.63;5047359;28;20202;-80
2022/03/17 03:49:43;;;;;;;25.10;7.10;;;;;;;8.31;100.00;96765.50;5044694;28;20297;-81
2022/03/17 03:52:13;;;;;;;30.40;7.13;;;;;;;8.24;100.00;96767.34;5043239;28;20203;-81
2022/03/17 03:54:41;;;;;;;31.40;8.63;;;;;;;8.15;100.00;96759.66;5067787;28;20326;-81
2022/03/17 03:57:09;;;;;;;31.43;7.50;;;;;;;7.95;100.00;96760.47;5057374;28;20206;-80
2022/03/17 03:59:36;;;;;;;36.27;7.97;;;;;;;7.87;100.00;96775.94;5035916;28;20216;-81
2022/03/17 04:02:05;;;;;;;33.90;7.37;;;;;;;7.89;100.00;96766.66;5045502;28;20289;-79
2022/03/17 04:04:34;;;;;;;33.17;6.93;;;;;;;8.13;100.00;96770.63;5053271;28;20238;-81
2022/03/17 04:07:05;;;;;;;32.80;9.17;;;;;;;7.79;100.00;96765.38;5042371;28;20207;-81
2022/03/17 04:09:34;;;;;;;33.40;8.07;;;;;;;7.72;100.00;96783.34;5043106;28;20217;-80
2022/03/17 04:12:02;;;;;;;35.53;7.97;;;;;;;7.33;100.00;96771.41;5038557;28;20206;-81
2022/03/17 04:14:30;;;;;;;34.30;8.63;;;;;;;7.20;100.00;96760.59;5042296;28;20223;-81
2022/03/17 04:16:58;;;;;;;40.70;9.03;;;;;;;7.17;100.00;96775.25;5041217;28;20301;-81
2022/03/17 04:19:25;;;;;;;46.27;8.20;;;;;;;7.23;100.00;96781.66;5040920;28;20288;-81
2022/03/17 04:21:53;;;;;;;27.77;7.80;;;;;;;7.17;100.00;96777.94;5040280;28;20203;-80
2022/03/17 04:24:22;;;;;;;35.13;8.93;;;;;;;6.92;100.00;96767.88;5072358;28;20307;-81
2022/03/17 04:26:50;;;;;;;46.73;9.60;;;;;;;6.93;100.00;96774.91;5081905;28;20205;-80
2022/03/17 04:29:17;;;;;;;39.37;8.40;;;;;;;6.87;100.00;96771.16;5099329;28;20205;-80
2022/03/17 04:31:45;;;;;;;52.70;10.00;;;;;;;7.01;100.00;96777.44;5084961;28;20518;-81
2022/03/17 04:34:13;;;;;;;38.40;8.90;;;;;;;7.09;100.00;96785.31;5079413;28;20316;-81
2022/03/17 04:36:40;;;;;;;46.40;9.47;;;;;;;7.04;100.00;96775.19;5076661;28;20200;-80
2022/03/17 04:39:11;;;;;;;47.17;8.93;;;;;;;7.27;100.00;96776.75;5075323;28;20254;-81
2022/03/17 04:41:40;;;;;;;39.53;8.47;;;;;;;7.14;100.00;96782.91;5074421;28;20228;-81
2022/03/17 04:44:07;;;;;;;50.57;10.37;;;;;;;6.98;100.00;96777.81;5084600;28;20205;-81
2022/03/17 04:46:35;;;;;;;43.13;9.60;;;;;;;6.96;100.00;96782.56;5079380;28;20213;-81
2022/03/17 04:49:02;;;;;;;36.03;10.03;;;;;;;7.17;100.00;96787.84;5073397;28;20260;-80
2022/03/17 04:51:29;;;;;;;41.90;8.57;;;;;;;7.13;100.00;96775.84;5083548;28;20212;-81
2022/03/17 04:53:57;;;;;;;41.40;8.10;;;;;;;7.35;100.00;96784.63;5080454;28;20217;-81
2022/03/17 04:56:24;;;;;;;29.17;7.07;;;;;;;7.50;100.00;96799.59;5081612;28;20279;-80
2022/03/17 04:58:53;;;;;;;37.67;8.17;;;;;;;7.60;100.00;96794.69;5077280;28;20213;-81
2022/03/17 05:01:20;;;;;;;31.67;7.47;;;;;;;7.70;100.00;96804.22;5080850;28;20205;-81
2022/03/17 05:03:47;;;;;;;41.03;8.13;;;;;;;7.91;100.00;96806.78;5081758;28;20265;-81
2022/03/17 05:06:16;;;;;;;35.37;7.87;;;;;;;7.91;100.00;96798.72;5080642;28;20201;-81
2022/03/17 05:08:44;;;;;;;39.37;8.40;;;;;;;7.93;100.00;96805.53;5080424;28;20246;-81
2022/03/17 05:11:13;;;;;;;39.97;8.70;;;;;;;7.92;100.00;96803.03;5078590;28;20268;-80
2022/03/17 05:13:42;;;;;;;43.30;10.10;;;;;;;8.03;100.00;96813.22;5076410;28;20240;-81
2022/03/17 05:16:10;;;;;;;40.47;9.60;;;;;;;7.91;100.00;96809.47;5077061;28;20225;-81
2022/03/17 05:18:37;;;;;;;43.30;9.57;;;;;;;7.73;100.00;96819.97;5072883;28;20296;-81
2022/03/17 05:21:04;;;;;;;49.97;9.17;;;;;;;7.72;100.00;96815.63;5076991;28;20197;-80
2022/03/17 05:23:33;;;;;;;42.83;7.97;;;;;;;7.87;100.00;96822.47;5069139;28;20237;-81
2022/03/17 05:26:00;;;;;;;41.13;10.17;;;;;;;7.62;100.00;96825.91;5064139;28;20221;-81
2022/03/17 05:28:28;;;;;;;43.97;10.10;;;;;;;7.41;100.00;96822.28;5062402;28;20212;-80
2022/03/17 05:30:55;;;;;;;36.93;9.33;;;;;;;7.46;100.00;96819.84;5056549;28;20245;-79
2022/03/17 05:33:24;;;;;;;35.00;8.23;;;;;;;7.34;100.00;96826.78;5061989;28;20252;-80
2022/03/17 05:35:51;;;;;;;42.27;8.30;;;;;;;7.45;100.00;96823.56;5059767;28;20238;-81
2022/03/17 05:38:18;;;;;;;58.67;9.50;;;;;;;7.40;100.00;96828.66;5061829;28;20339;-81
2022/03/17 05:40:45;;;;;;;50.93;9.60;;;;;;;7.25;100.00;96827.97;5057265;28;20271;-80
2022/03/17 05:43:12;;;;;;;44.20;8.83;;;;;;;7.23;100.00;96844.28;5061395;28;20202;-80
2022/03/17 05:45:41;;;;;;;38.33;9.43;;;;;;;7.08;100.00;96832.00;5061013;28;20255;-81
2022/03/17 05:48:09;;;;;;;54.47;9.90;;;;;;;7.12;100.00;96835.97;5061381;28;20213;-81
2022/03/17 05:50:40;;;;;;;46.87;8.90;;;;;;;7.14;100.00;96837.44;5062776;28;20202;-81
2022/03/17 05:53:08;;;;;;;35.87;8.20;;;;;;;7.06;100.00;96834.88;5075952;28;20202;-81
2022/03/17 05:55:36;;;;;;;41.67;8.13;;;;;;;7.13;100.00;96832.25;5057431;28;20288;-81
2022/03/17 05:58:05;;;;;;;39.10;8.70;;;;;;;7.16;100.00;96846.09;5061840;28;20201;-81
2022/03/17 06:00:33;;;;;;;43.57;8.77;;;;;;;7.21;100.00;96838.31;5069944;28;20304;-81
2022/03/17 06:03:01;;;;;;;41.87;8.43;;;;;;;7.33;100.00;96849.31;5058677;28;20217;-80
2022/03/17 06:05:29;;;;;;;39.53;9.20;;;;;;;7.30;100.00;96854.25;5053433;28;20270;-81
2022/03/17 06:08:01;;;;;;;48.90;9.90;;;;;;;7.28;100.00;96854.44;5061123;28;20205;-81
2022/03/17 06:10:32;;;;;;;37.93;8.30;;;;;;;7.29;100.00;96856.13;5057037;28;20213;-80
2022/03/17 06:13:00;;;;;;;52.53;8.90;;;;;;;7.38;100.00;96849.56;5062156;28;20208;-81
2022/03/17 06:15:28;;;;;;;52.03;9.53;;;;;;;7.41;100.00;96851.81;5060590;28;20308;-81
2022/03/17 06:17:57;;;;;;;49.73;9.13;;;;;;;7.53;100.00;96852.94;5059479;28;20201;-81
2022/03/17 06:20:26;;;;;;;42.93;9.57;;;;;;;7.67;100.00;96845.75;5061353;28;20197;-80
2022/03/17 06:22:55;;;;;;;44.53;9.07;;;;;;;7.67;100.00;96842.25;5057826;28;20240;-81
2022/03/17 06:25:25;;;;;;;44.70;9.27;;;;;;;7.71;100.00;96843.50;5077374;28;20193;-81
2022/03/17 06:27:52;;;;;;;50.30;10.13;;;;;;;7.76;100.00;96847.25;5095195;28;20230;-81
2022/03/17 06:30:21;;;;;;;50.57;10.60;;;;;;;7.74;100.00;96853.88;5082597;28;20219;-81
2022/03/17 06:32:49;;;;;;;49.10;10.23;;;;;;;7.83;100.00;96852.66;5077404;28;20202;-82
2022/03/17 06:35:18;;;;;;;44.87;10.93;;;;;;;7.85;100.00;96856.81;5084619;28;20220;-81
2022/03/17 06:37:45;;;;;;;45.90;9.40;;;;;;;7.76;100.00;96862.56;5078685;28;20273;-81
2022/03/17 06:40:14;;;;;;;35.67;9.20;;;;;;;7.89;100.00;96855.38;5075852;28;20211;-81
2022/03/17 06:42:42;;;;;;;42.67;10.37;;;;;;;8.04;100.00;96859.78;5081977;28;20307;-81
2022/03/17 06:45:10;;;;;;;46.57;11.87;;;;;;;7.74;100.00;96851.19;5077143;28;20199;-81
2022/03/17 06:47:37;;;;;;;47.97;10.53;;;;;;;7.82;100.00;96851.00;5091143;28;20219;-81
2022/03/17 06:50:05;;;;;;;41.73;10.40;;;;;;;7.96;100.00;96847.34;5070851;28;20208;-80
2022/03/17 06:52:32;;;;;;;52.60;10.43;;;;;;;8.17;100.00;96855.25;5071883;28;20210;-81
2022/03/17 06:54:59;;;;;;;44.73;10.30;;;;;;;8.16;100.00;96850.94;5081632;28;20239;-81
2022/03/17 06:57:26;;;;;;;34.30;8.03;;;;;;;8.26;100.00;96851.34;5075174;28;20219;-81
2022/03/17 06:59:55;;;;;;;37.30;9.93;;;;;;;8.28;100.00;96851.16;5072803;28;20292;-81
2022/03/17 07:02:22;;;;;;;44.70;10.13;;;;;;;8.38;100.00;96856.16;5074624;28;20196;-81
2022/03/17 07:04:49;;;;;;;46.50;10.37;;;;;;;8.44;100.00;96853.47;5072192;28;20209;-81
2022/03/17 07:07:17;;;;;;;48.23;10.70;;;;;;;8.57;100.00;96874.22;5081545;28;20215;-80
2022/03/17 07:09:44;;;;;;;48.00;13.33;;;;;;;8.59;100.00;96872.16;5081520;28;20226;-81
2022/03/17 07:12:11;;;;;;;38.53;9.60;;;;;;;8.66;100.00;96871.13;5078735;28;20219;-81
2022/03/17 07:14:39;;;;;;;51.23;10.33;;;;;;;8.65;100.00;96871.34;5095028;28;20245;-81
2022/03/17 07:17:07;;;;;;;47.13;11.30;;;;;;;8.87;100.00;96880.03;5082918;28;20217;-81
2022/03/17 07:19:35;;;;;;;56.03;10.50;;;;;;;8.95;100.00;96879.84;5080310;28;20200;-81
2022/03/17 07:22:02;;;;;;;57.27;10.43;;;;;;;9.03;99.38;96876.94;5076080;28;20197;-81
2022/03/17 07:24:29;;;;;;;42.30;10.03;;;;;;;9.04;98.22;96875.91;5099288;27;20233;-81
2022/03/17 07:26:58;;;;;;;43.53;10.13;;;;;;;9.05;97.45;96881.09;5084622;28;20197;-81
2022/03/17 07:29:25;;;;;;;58.53;10.33;;;;;;;9.08;97.24;96880.69;5076789;28;20198;-79
2022/03/17 07:31:54;;;;;;;54.07;10.30;;;;;;;9.16;97.96;96885.03;5083108;28;20206;-81
2022/03/17 07:34:23;;;;;;;41.83;10.20;;;;;;;9.36;95.97;96898.47;5087120;28;20316;-81
2022/03/17 07:36:51;;;;;;;53.60;9.67;;;;;;;9.43;95.72;96902.00;5088756;28;20231;-81
2022/03/17 07:39:18;;;;;;;47.40;9.73;;;;;;;9.45;94.44;96903.44;5081956;28;20240;-81
2022/03/17 07:41:46;;;;;;;42.40;10.30;;;;;;;9.52;93.85;96895.34;5078487;28;20229;-80
2022/03/17 07:44:13;;;;;;;47.83;10.57;;;;;;;9.60;93.23;96908.59;5086811;28;20217;-80
2022/03/17 07:47:00;;;;;;;52.30;10.70;;;;;;;9.69;92.72;96912.75;5082430;28;20228;-81
2022/03/17 07:49:42;;;;;;;47.23;11.20;;;;;;;9.58;92.08;96913.38;5084588;28;20228;-80
2022/03/17 07:52:10;;;;;;;40.83;9.17;;;;;;;9.63;93.02;96908.16;5077902;28;20203;-81
2022/03/17 07:54:37;;;;;;;63.10;11.73;;;;;;;9.69;92.07;96918.13;5076980;28;20216;-81
2022/03/17 07:57:04;;;;;;;49.10;10.37;;;;;;;9.79;92.37;96925.75;5075849;28;20231;-81
2022/03/17 07:59:33;;;;;;;56.10;12.00;;;;;;;9.84;91.63;96923.28;5097944;28;20296;-81
2022/03/17 08:02:04;;;;;;;56.83;10.07;;;;;;;9.97;90.56;96922.41;5081306;28;20201;-80
2022/03/17 08:04:32;;;;;;;47.40;11.17;;;;;;;10.04;90.01;96928.59;5083291;28;20212;-81
2022/03/17 08:07:01;;;;;;;44.83;10.50;;;;;;;10.03;90.16;96926.97;5084081;28;20228;-80
2022/03/17 08:09:29;;;;;;;48.30;10.07;;;;;;;10.11;89.92;96930.25;5077510;28;20233;-80
2022/03/17 08:11:55;;;;;;;43.73;9.63;;;;;;;10.21;90.11;96929.81;5078750;28;20201;-81
2022/03/17 08:14:23;;;;;;;61.90;11.10;;;;;;;10.28;89.90;96929.81;5100595;28;20270;-81
2022/03/17 08:16:50;;;;;;;47.17;10.23;;;;;;;10.33;89.94;96936.22;5079130;28;20220;-82
2022/03/17 08:19:17;;;;;;;48.30;9.67;;;;;;;10.35;91.34;96933.31;5086791;28;20201;-81
2022/03/17 08:21:44;;;;;;;56.10;11.00;;;;;;;10.43;94.22;96939.28;5080843;28;20211;-81
2022/03/17 08:24:13;;;;;;;45.83;10.13;;;;;;;10.38;95.13;96933.69;5078967;28;20232;-81
2022/03/17 08:26:40;;;;;;;55.73;10.57;;;;;;;10.13;96.18;96938.09;5076163;28;20269;-81
2022/03/17 08:29:08;;;;;;;45.43;11.63;;;;;;;10.05;98.07;96931.09;5074821;28;20201;-81
2022/03/17 08:31:35;;;;;;;47.80;10.07;;;;;;;10.07;98.56;96936.28;5079189;28;20206;-81
2022/03/17 08:34:02;;;;;;;52.20;10.67;;;;;;;10.08;98.31;96935.22;5081135;28;20229;-81
2022/03/17 08:36:29;;;;;;;51.77;9.20;;;;;;;10.24;96.46;96932.09;5079525;28;20211;-81
2022/03/17 08:38:56;;;;;;;48.53;11.20;;;;;;;10.41;96.25;96941.34;5074807;28;20300;-81
2022/03/17 08:41:25;;;;;;;48.87;10.57;;;;;;;10.60;92.68;96940.44;5080814;28;20209;-80
2022/03/17 08:43:53;;;;;;;55.37;11.27;;;;;;;10.60;91.49;96932.34;5074131;28;20216;-81
2022/03/17 08:49:22;;;;;;;49.03;10.53;;;;;;;10.89;90.48;96935.47;5074950;28;20200;-81
2022/03/17 08:51:51;;;;;;;50.77;10.17;;;;;;;10.91;89.35;96941.50;5097815;28;20197;-81
2022/03/17 08:54:20;;;;;;;50.60;10.77;;;;;;;10.93;87.68;96937.53;5082909;28;20221;-81
2022/03/17 08:56:49;;;;;;;48.63;10.13;;;;;;;11.07;88.54;96932.84;5077367;28;20233;-81
2022/03/17 08:59:16;;;;;;;49.40;10.20;;;;;;;11.30;86.15;96935.81;5081683;28;20201;-81
2022/03/17 09:01:43;;;;;;;33.47;9.67;;;;;;;11.39;84.39;96944.50;5079676;28;20243;-80
2022/03/17 09:04:13;;;;;;;44.33;9.53;;;;;;;11.32;85.02;96939.09;5076192;28;20271;-81
2022/03/17 09:06:43;;;;;;;43.73;10.40;;;;;;;11.04;88.39;96946.84;5077731;28;20232;-81
2022/03/17 09:09:11;;;;;;;45.60;10.13;;;;;;;11.23;88.45;96940.44;5082552;28;20249;-81
2022/03/17 09:11:39;;;;;;;46.33;9.53;;;;;;;11.47;84.20;96936.09;5077865;28;20229;-81
2022/03/17 09:14:08;;;;;;;50.77;11.67;;;;;;;11.60;83.61;96937.84;5078624;28;20212;-81
2022/03/17 09:16:36;;;;;;;50.30;10.53;;;;;;;11.63;83.05;96940.09;5076300;28;20232;-80
2022/03/17 09:19:03;;;;;;;59.00;11.50;;;;;;;11.75;82.54;96941.03;5081022;28;20212;-80
2022/03/17 09:21:31;;;;;;;44.37;10.03;;;;;;;11.82;79.25;96938.31;5073355;28;20205;-80
2022/03/17 09:24:00;;;;;;;43.00;9.37;;;;;;;11.88;78.27;96945.50;5082261;28;20236;-81
2022/03/17 09:26:27;;;;;;;54.93;10.60;;;;;;;11.79;78.81;96927.91;5084542;28;20280;-81
2022/03/17 09:28:54;;;;;;;54.47;10.13;;;;;;;11.91;76.17;96924.22;5084074;28;20216;-81
2022/03/17 09:31:23;;;;;;;45.40;9.50;;;;;;;12.20;76.76;96929.94;5075065;28;20205;-80
2022/03/17 09:33:50;;;;;;;45.90;10.37;;;;;;;12.22;75.87;96931.41;5082031;28;20205;-81
2022/03/17 09:36:17;;;;;;;48.90;10.10;;;;;;;12.22;76.37;96927.84;5083632;28;20233;-81
2022/03/17 09:39:39;;;;;;;39.20;8.63;;;;;;;12.36;76.19;96910.38;5076588;28;20224;-81
2022/03/17 09:41:33;;;;;;;45.47;10.73;;;;;;;12.61;74.18;96912.97;5080110;28;20206;-81
2022/03/17 09:44:00;;;;;;;60.07;11.20;;;;;;;12.44;72.60;96902.78;5074570;28;20254;-82
2022/03/17 09:46:30;;;;;;;43.43;8.33;;;;;;;12.54;73.03;96904.13;5073618;28;20228;-80
2022/03/17 09:48:57;;;;;;;63.23;12.90;;;;;;;12.77;72.31;96902.31;5080323;28;20280;-81
2022/03/17 09:51:27;;;;;;;52.67;10.83;;;;;;;13.03;70.34;96908.41;5082638;28;20250;-80
2022/03/17 09:54:00;;;;;;;53.10;10.57;;;;;;;12.77;69.38;96910.44;5080323;28;20200;-81
2022/03/17 09:56:29;;;;;;;46.40;10.10;;;;;;;13.03;70.14;96903.81;5081460;28;20228;-81
2022/03/17 09:58:57;;;;;;;50.27;9.70;;;;;;;13.08;67.70;96903.94;5079851;28;20262;-81
2022/03/17 10:01:26;;;;;;;48.43;9.53;;;;;;;13.43;67.47;96890.47;5081698;28;20444;-81
2022/03/17 10:04:00;;;;;;;59.43;9.80;;;;;;;13.70;64.20;96903.56;5077565;28;20215;-81
2022/03/17 10:06:28;;;;;;;50.53;9.57;;;;;;;13.63;63.42;96899.06;5084461;28;20197;-81
2022/03/17 10:08:56;;;;;;;50.17;9.00;;;;;;;13.71;63.39;96899.78;5080399;28;20209;-81
2022/03/17 10:11:30;;;;;;;51.47;11.40;;;;;;;13.64;63.25;96892.59;5084625;28;20193;-81
2022/03/17 10:13:59;;;;;;;59.27;10.47;;;;;;;13.35;64.51;96895.44;5085167;28;20206;-81
2022/03/17 10:16:28;;;;;;;55.83;9.70;;;;;;;13.72;64.11;96885.16;5076129;28;20231;-81
2022/03/17 10:19:01;;;;;;;48.67;9.63;;;;;;;14.10;63.36;96884.66;5084590;28;20224;-81
2022/03/17 10:21:29;;;;;;;63.60;10.97;;;;;;;14.16;62.45;96891.81;5079128;28;20282;-81
2022/03/17 10:23:59;;;;;;;62.00;11.53;;;;;;;14.29;61.25;96880.72;5081491;28;20264;-81
2022/03/17 10:26:39;;;;;;;61.87;10.40;;;;;;;13.97;61.82;96869.44;5077911;28;20229;-81
2022/03/17 10:29:12;;;;;;;62.80;9.73;;;;;;;14.16;61.61;96865.50;5082035;28;20316;-82
2022/03/17 10:32:00;;;;;;;45.53;9.50;;;;;;;14.43;59.89;96873.94;5079778;28;20212;-81
2022/03/17 10:34:30;;;;;;;44.50;8.97;;;;;;;14.64;59.56;96873.25;5082616;28;20204;-81
2022/03/17 10:37:12;;;;;;;59.60;10.37;;;;;;;15.04;58.38;96873.19;5080063;28;20224;-81
2022/03/17 10:39:44;;;;;;;51.23;10.37;;;;;;;15.13;57.77;96870.91;5079142;28;20219;-81
2022/03/17 10:42:16;;;;;;;50.13;10.57;;;;;;;15.18;57.20;96879.13;5077088;28;20193;-81
2022/03/17 10:44:47;;;;;;;50.30;9.30;;;;;;;15.29;57.04;96870.06;5071374;28;20240;-82
2022/03/17 10:47:15;;;;;;;66.93;10.33;;;;;;;15.24;54.85;96885.47;5078253;28;20209;-82
2022/03/17 10:50:02;;;;;;;59.07;10.47;;;;;;;15.14;58.94;96883.44;5080562;28;20223;-81
2022/03/17 10:52:50;;;;;;;61.73;10.13;;;;;;;15.13;58.70;96885.31;5082284;28;20208;-81
2022/03/17 10:55:21;;;;;;;49.43;9.83;;;;;;;15.22;59.48;96882.19;5078236;28;20252;-81
2022/03/17 10:57:49;;;;;;;62.93;12.27;;;;;;;15.23;59.28;96873.75;5075206;28;20219;-81
2022/03/17 11:00:21;;;;;;;55.30;10.37;;;;;;;15.35;59.43;96879.13;5084070;28;20212;-82
2022/03/17 11:02:50;;;;;;;63.30;10.10;;;;;;;15.41;58.08;96880.84;5088430;28;20197;-81
2022/03/17 11:05:20;;;;;;;53.63;9.80;;;;;;;15.30;57.78;96871.72;5084718;28;20201;-81
2022/03/17 11:07:48;;;;;;;48.13;9.90;;;;;;;15.30;57.14;96876.34;5084455;28;20213;-81
2022/03/17 11:10:21;;;;;;;49.20;10.33;;;;;;;15.28;60.77;96881.19;5080129;28;20196;-81
2022/03/17 11:12:50;;;;;;;49.30;10.40;;;;;;;15.26;65.48;96875.16;5081994;28;20205;-81
2022/03/17 11:15:26;;;;;;;57.87;10.73;;;;;;;15.29;67.15;96885.56;5081140;28;20220;-81
2022/03/17 11:17:55;;;;;;;47.50;10.83;;;;;;;15.02;69.38;96880.75;5083151;28;20208;-81
2022/03/17 11:20:24;;;;;;;58.10;10.63;;;;;;;14.94;69.71;96875.72;5113461;27;20300;-81
2022/03/17 11:23:19;;;;;;;42.20;10.37;;;;;;;14.92;70.00;96888.72;5080273;28;20244;-81
2022/03/17 11:25:52;;;;;;;42.60;9.57;;;;;;;14.53;70.87;96892.34;5083434;28;20223;-81
2022/03/17 11:28:30;;;;;;;43.37;9.23;;;;;;;14.44;70.32;96896.50;5085616;28;20243;-81
2022/03/17 11:31:00;;;;;;;44.30;9.90;;;;;;;14.31;69.53;96892.97;5096853;28;20264;-81
2022/03/17 11:33:29;;;;;;;50.20;10.00;;;;;;;14.15;68.04;96892.88;5085209;28;20221;-81
2022/03/17 11:36:01;;;;;;;46.87;9.53;;;;;;;14.03;68.69;96895.63;5084087;28;20282;-81
2022/03/17 11:38:30;;;;;;;42.87;9.60;;;;;;;13.99;67.76;96889.03;5086013;28;20308;-80